sensor_id;sensor_type;location;lat;lon;timestamp;pressure;altitude;pressure_sealevel;temperature;humidity
71795;BME280;59641;45.188;5.712;2023-04-30T00:01:59;99034.91;;;20.30;61.78
71795;BME280;59641;45.188;5.712;2023-04-30T00:04:24;99030.25;;;20.31;61.73
71795;BME280;59641;45.188;5.712;2023-04-30T00:06:49;99027.53;;;20.31;61.94
71795;BME280;59641;45.188;5.712;2023-04-30T00:09:15;99021.28;;;20.30;61.72
71795;BME280;59641;45.188;5.712;2023-04-30T00:11:40;99032.97;;;20.31;61.89
71795;BME280;59641;45.188;5.712;2023-04-30T00:14:05;99030.25;;;20.31;61.82
71795;BME280;59641;45.188;5.712;2023-04-30T00:16:31;99017.72;;;20.30;61.96
71795;BME280;59641;45.188;5.712;2023-04-30T00:18:56;99016.09;;;20.29;61.87
71795;BME280;59641;45.188;5.712;2023-04-30T00:21:22;99011.78;;;20.28;61.91
71795;BME280;59641;45.188;5.712;2023-04-30T00:23:47;99019.63;;;20.29;61.43
71795;BME280;59641;45.188;5.712;2023-04-30T00:26:12;99014.50;;;20.28;61.36
71795;BME280;59641;45.188;5.712;2023-04-30T00:28:38;99016.38;;;20.27;61.43
71795;BME280;59641;45.188;5.712;2023-04-30T00:31:03;99014.50;;;20.28;61.40
71795;BME280;59641;45.188;5.712;2023-04-30T00:33:31;99016.69;;;20.26;61.16
71795;BME280;59641;45.188;5.712;2023-04-30T00:35:56;99015.84;;;20.25;61.17
71795;BME280;59641;45.188;5.712;2023-04-30T00:38:21;99006.06;;;20.24;61.00
71795;BME280;59641;45.188;5.712;2023-04-30T00:40:48;99009.91;;;20.23;61.13
71795;BME280;59641;45.188;5.712;2023-04-30T00:43:13;99002.03;;;20.21;61.08
71795;BME280;59641;45.188;5.712;2023-04-30T00:45:38;98997.69;;;20.20;60.94
71795;BME280;59641;45.188;5.712;2023-04-30T00:48:04;98992.81;;;20.17;60.72
71795;BME280;59641;45.188;5.712;2023-04-30T00:50:30;98999.66;;;20.15;60.84
71795;BME280;59641;45.188;5.712;2023-04-30T00:52:55;99001.06;;;20.12;60.58
71795;BME280;59641;45.188;5.712;2023-04-30T00:55:21;98997.00;;;20.10;60.90
71795;BME280;59641;45.188;5.712;2023-04-30T00:57:47;98996.19;;;20.09;61.11
71795;BME280;59641;45.188;5.712;2023-04-30T01:00:13;98999.50;;;20.06;60.61
71795;BME280;59641;45.188;5.712;2023-04-30T01:02:39;98995.94;;;20.06;61.05
71795;BME280;59641;45.188;5.712;2023-04-30T01:05:05;98995.94;;;20.06;60.78
71795;BME280;59641;45.188;5.712;2023-04-30T01:07:32;99003.31;;;20.05;60.66
71795;BME280;59641;45.188;5.712;2023-04-30T01:09:59;99002.50;;;20.05;60.67
71795;BME280;59641;45.188;5.712;2023-04-30T01:20:18;99000.66;;;20.00;60.34
71795;BME280;59641;45.188;5.712;2023-04-30T01:28:09;99007.72;;;20.01;60.63
71795;BME280;59641;45.188;5.712;2023-04-30T01:30:37;99008.31;;;19.98;60.49
71795;BME280;59641;45.188;5.712;2023-04-30T01:33:04;99012.94;;;19.97;60.25
71795;BME280;59641;45.188;5.712;2023-04-30T01:46:23;99002.72;;;19.84;59.94
71795;BME280;59641;45.188;5.712;2023-04-30T01:51:40;99002.25;;;19.82;60.17
71795;BME280;59641;45.188;5.712;2023-04-30T01:56:54;99010.97;;;19.79;59.98
71795;BME280;59641;45.188;5.712;2023-04-30T01:59:27;99004.44;;;19.80;59.69
71795;BME280;59641;45.188;5.712;2023-04-30T02:01:52;99000.91;;;19.79;59.73
71795;BME280;59641;45.188;5.712;2023-04-30T02:04:18;98995.75;;;19.78;59.87
71795;BME280;59641;45.188;5.712;2023-04-30T02:06:43;98991.38;;;19.77;59.74
71795;BME280;59641;45.188;5.712;2023-04-30T02:09:08;98993.31;;;19.76;59.76
71795;BME280;59641;45.188;5.712;2023-04-30T02:11:34;98997.41;;;19.74;59.66
71795;BME280;59641;45.188;5.712;2023-04-30T02:14:00;98995.81;;;19.73;59.58
71795;BME280;59641;45.188;5.712;2023-04-30T02:16:25;98991.16;;;19.73;59.36
71795;BME280;59641;45.188;5.712;2023-04-30T02:18:51;98991.44;;;19.72;59.35
71795;BME280;59641;45.188;5.712;2023-04-30T02:21:16;98996.09;;;19.71;59.21
71795;BME280;59641;45.188;5.712;2023-04-30T02:23:42;98989.03;;;19.70;59.17
71795;BME280;59641;45.188;5.712;2023-04-30T02:26:07;98994.47;;;19.70;59.42
71795;BME280;59641;45.188;5.712;2023-04-30T02:28:33;98997.47;;;19.69;59.05
71795;BME280;59641;45.188;5.712;2023-04-30T02:30:58;98997.47;;;19.69;59.18
71795;BME280;59641;45.188;5.712;2023-04-30T02:33:23;98997.72;;;19.67;59.11
71795;BME280;59641;45.188;5.712;2023-04-30T02:35:49;99004.03;;;19.68;59.25
71795;BME280;59641;45.188;5.712;2023-04-30T02:38:14;98998.31;;;19.64;58.62
71795;BME280;59641;45.188;5.712;2023-04-30T02:40:40;99001.03;;;19.64;58.94
71795;BME280;59641;45.188;5.712;2023-04-30T02:43:06;99000.50;;;19.62;58.93
71795;BME280;59641;45.188;5.712;2023-04-30T02:45:32;98998.88;;;19.61;58.57
71795;BME280;59641;45.188;5.712;2023-04-30T02:47:57;98999.97;;;19.60;58.74
71795;BME280;59641;45.188;5.712;2023-04-30T02:50:23;99004.59;;;19.59;58.51
71795;BME280;59641;45.188;5.712;2023-04-30T02:52:48;98998.94;;;19.56;58.88
71795;BME280;59641;45.188;5.712;2023-04-30T02:55:14;98997.63;;;19.53;58.50
71795;BME280;59641;45.188;5.712;2023-04-30T02:57:39;98998.69;;;19.52;58.33
71795;BME280;59641;45.188;5.712;2023-04-30T03:00:05;99001.72;;;19.51;58.57
71795;BME280;59641;45.188;5.712;2023-04-30T03:02:31;99006.63;;;19.49;58.47
71795;BME280;59641;45.188;5.712;2023-04-30T03:04:56;99006.38;;;19.45;58.22
71795;BME280;59641;45.188;5.712;2023-04-30T03:07:22;99009.41;;;19.44;58.37
71795;BME280;59641;45.188;5.712;2023-04-30T03:09:47;99007.78;;;19.43;58.36
71795;BME280;59641;45.188;5.712;2023-04-30T03:12:12;99009.69;;;19.42;58.24
71795;BME280;59641;45.188;5.712;2023-04-30T03:14:39;99008.34;;;19.40;58.22
71795;BME280;59641;45.188;5.712;2023-04-30T03:17:05;99004.03;;;19.39;58.01
71795;BME280;59641;45.188;5.712;2023-04-30T03:19:31;99001.56;;;19.37;57.94
71795;BME280;59641;45.188;5.712;2023-04-30T03:21:56;99005.69;;;19.34;58.21
71795;BME280;59641;45.188;5.712;2023-04-30T03:24:21;99003.25;;;19.33;57.85
71795;BME280;59641;45.188;5.712;2023-04-30T03:26:47;98998.09;;;19.31;58.11
71795;BME280;59641;45.188;5.712;2023-04-30T03:29:12;99008.16;;;19.31;57.78
71795;BME280;59641;45.188;5.712;2023-04-30T03:31:38;99004.91;;;19.29;57.81
71795;BME280;59641;45.188;5.712;2023-04-30T03:34:03;99002.47;;;19.27;57.78
71795;BME280;59641;45.188;5.712;2023-04-30T03:36:28;99009.31;;;19.25;57.37
71795;BME280;59641;45.188;5.712;2023-04-30T03:38:54;98999.28;;;19.20;57.74
71795;BME280;59641;45.188;5.712;2023-04-30T03:41:19;99009.34;;;19.20;57.70
71795;BME280;59641;45.188;5.712;2023-04-30T03:43:45;98999.56;;;19.19;57.53
71795;BME280;59641;45.188;5.712;2023-04-30T03:46:10;99003.38;;;19.18;57.72
71795;BME280;59641;45.188;5.712;2023-04-30T03:48:35;98998.50;;;19.14;57.44
71795;BME280;59641;45.188;5.712;2023-04-30T03:51:01;99003.94;;;19.14;57.51
71795;BME280;59641;45.188;5.712;2023-04-30T03:53:26;98994.16;;;19.13;57.37
71795;BME280;59641;45.188;5.712;2023-04-30T03:55:52;99000.19;;;19.10;57.54
71795;BME280;59641;45.188;5.712;2023-04-30T03:58:18;98999.94;;;19.07;57.68
71795;BME280;59641;45.188;5.712;2023-04-30T04:00:44;99007.56;;;19.05;57.54
71795;BME280;59641;45.188;5.712;2023-04-30T04:03:12;99012.75;;;19.01;57.41
71795;BME280;59641;45.188;5.712;2023-04-30T04:05:37;99007.63;;;18.94;57.24
71795;BME280;59641;45.188;5.712;2023-04-30T04:08:03;99016.09;;;18.88;57.41
71795;BME280;59641;45.188;5.712;2023-04-30T04:10:29;99016.16;;;18.83;57.17
71795;BME280;59641;45.188;5.712;2023-04-30T04:12:54;99007.75;;;18.79;57.15
71795;BME280;59641;45.188;5.712;2023-04-30T04:15:19;99010.75;;;18.72;57.54
71795;BME280;59641;45.188;5.712;2023-04-30T04:17:45;99006.16;;;18.68;57.46
71795;BME280;59641;45.188;5.712;2023-04-30T04:20:10;99011.06;;;18.66;57.24
71795;BME280;59641;45.188;5.712;2023-04-30T04:22:37;99018.44;;;18.60;57.41
71795;BME280;59641;45.188;5.712;2023-04-30T04:25:02;99015.75;;;18.55;57.62
71795;BME280;59641;45.188;5.712;2023-04-30T04:27:28;99015.50;;;18.51;57.67
71795;BME280;59641;45.188;5.712;2023-04-30T04:29:53;99019.06;;;18.47;57.64
71795;BME280;59641;45.188;5.712;2023-04-30T04:32:19;99021.25;;;18.40;57.60
71795;BME280;59641;45.188;5.712;2023-04-30T04:34:44;99021.03;;;18.36;57.53
71795;BME280;59641;45.188;5.712;2023-04-30T04:37:10;99025.91;;;18.34;57.60
71795;BME280;59641;45.188;5.712;2023-04-30T04:39:35;99023.19;;;18.34;57.79
71795;BME280;59641;45.188;5.712;2023-04-30T04:42:01;99016.44;;;18.31;57.80
71795;BME280;59641;45.188;5.712;2023-04-30T04:44:27;99030.28;;;18.30;57.73
71795;BME280;59641;45.188;5.712;2023-04-30T04:46:52;99030.56;;;18.28;57.47
71795;BME280;59641;45.188;5.712;2023-04-30T04:49:18;99035.19;;;18.28;57.55
71795;BME280;59641;45.188;5.712;2023-04-30T04:51:43;99031.94;;;18.26;57.87
71795;BME280;59641;45.188;5.712;2023-04-30T04:54:09;99042.50;;;18.27;57.91
71795;BME280;59641;45.188;5.712;2023-04-30T04:56:34;99042.50;;;18.27;57.86
71795;BME280;59641;45.188;5.712;2023-04-30T04:59:00;99039.25;;;18.25;57.72
71795;BME280;59641;45.188;5.712;2023-04-30T05:01:25;99042.28;;;18.24;57.76
71795;BME280;59641;45.188;5.712;2023-04-30T05:03:51;99042.28;;;18.19;57.34
71795;BME280;59641;45.188;5.712;2023-04-30T05:06:18;99042.28;;;18.19;57.59
71795;BME280;59641;45.188;5.712;2023-04-30T05:08:43;99037.94;;;18.18;57.29
71795;BME280;59641;45.188;5.712;2023-04-30T05:11:08;99044.72;;;18.15;57.57
71795;BME280;59641;45.188;5.712;2023-04-30T05:13:34;99045.56;;;18.10;57.26
71795;BME280;59641;45.188;5.712;2023-04-30T05:15:59;99048.84;;;18.07;57.61
71795;BME280;59641;45.188;5.712;2023-04-30T05:18:25;99041.22;;;18.09;57.86
71795;BME280;59641;45.188;5.712;2023-04-30T05:20:50;99044.50;;;18.12;57.49
71795;BME280;59641;45.188;5.712;2023-04-30T05:23:15;99044.19;;;18.13;57.48
71795;BME280;59641;45.188;5.712;2023-04-30T05:25:41;99048.81;;;18.13;57.71
71795;BME280;59641;45.188;5.712;2023-04-30T05:28:06;99048.56;;;18.14;57.62
71795;BME280;59641;45.188;5.712;2023-04-30T05:30:32;99047.19;;;18.17;57.60
71795;BME280;59641;45.188;5.712;2023-04-30T05:32:57;99055.88;;;18.19;57.12
71795;BME280;59641;45.188;5.712;2023-04-30T05:35:23;99051.78;;;18.21;57.14
71795;BME280;59641;45.188;5.712;2023-04-30T05:37:48;99055.31;;;18.22;57.36
71795;BME280;59641;45.188;5.712;2023-04-30T05:40:14;99057.22;;;18.21;57.00
71795;BME280;59641;45.188;5.712;2023-04-30T05:42:40;99056.94;;;18.18;57.24
71795;BME280;59641;45.188;5.712;2023-04-30T05:45:08;99058.59;;;18.19;56.91
71795;BME280;59641;45.188;5.712;2023-04-30T05:47:34;99059.66;;;18.18;56.89
71795;BME280;59641;45.188;5.712;2023-04-30T05:49:59;99059.13;;;18.16;56.83
71795;BME280;59641;45.188;5.712;2023-04-30T05:52:25;99062.94;;;18.15;56.99
71795;BME280;59641;45.188;5.712;2023-04-30T05:54:50;99057.78;;;18.13;56.75
71795;BME280;59641;45.188;5.712;2023-04-30T05:57:16;99059.94;;;18.11;56.78
71795;BME280;59641;45.188;5.712;2023-04-30T05:59:41;99068.94;;;18.12;56.84
71795;BME280;59641;45.188;5.712;2023-04-30T06:02:07;99059.94;;;18.11;57.05
71795;BME280;59641;45.188;5.712;2023-04-30T06:04:32;99063.50;;;18.12;57.21
71795;BME280;59641;45.188;5.712;2023-04-30T06:06:58;99059.69;;;18.13;56.93
71795;BME280;59641;45.188;5.712;2023-04-30T06:09:23;99055.06;;;18.13;56.68
71795;BME280;59641;45.188;5.712;2023-04-30T06:11:48;99060.50;;;18.13;56.68
71795;BME280;59641;45.188;5.712;2023-04-30T06:14:16;99058.88;;;18.12;56.79
71795;BME280;59641;45.188;5.712;2023-04-30T06:16:43;99065.38;;;18.11;56.82
71795;BME280;59641;45.188;5.712;2023-04-30T06:19:09;99067.56;;;18.14;56.65
71795;BME280;59641;45.188;5.712;2023-04-30T06:21:35;99062.94;;;18.15;56.86
71795;BME280;59641;45.188;5.712;2023-04-30T06:24:00;99060.22;;;18.15;56.68
71795;BME280;59641;45.188;5.712;2023-04-30T06:26:26;99062.38;;;18.18;57.15
71795;BME280;59641;45.188;5.712;2023-04-30T06:28:51;99054.78;;;18.20;57.06
71795;BME280;59641;45.188;5.712;2023-04-30T06:31:16;99062.66;;;18.21;56.88
71795;BME280;59641;45.188;5.712;2023-04-30T06:33:42;99057.22;;;18.21;56.84
71795;BME280;59641;45.188;5.712;2023-04-30T06:36:07;99066.72;;;18.24;56.85
71795;BME280;59641;45.188;5.712;2023-04-30T06:38:33;99065.34;;;18.26;56.64
71795;BME280;59641;45.188;5.712;2023-04-30T06:40:58;99069.41;;;18.29;56.53
71795;BME280;59641;45.188;5.712;2023-04-30T06:43:23;99064.50;;;18.31;56.88
71795;BME280;59641;45.188;5.712;2023-04-30T06:45:49;99071.56;;;18.32;56.60
71795;BME280;59641;45.188;5.712;2023-04-30T06:48:14;99075.06;;;18.33;56.61
71795;BME280;59641;45.188;5.712;2023-04-30T06:50:39;99075.06;;;18.33;56.46
71795;BME280;59641;45.188;5.712;2023-04-30T06:53:12;99076.72;;;18.34;56.73
71795;BME280;59641;45.188;5.712;2023-04-30T06:55:37;99077.00;;;18.32;56.83
71795;BME280;59641;45.188;5.712;2023-04-30T06:58:03;99073.19;;;18.33;56.68
71795;BME280;59641;45.188;5.712;2023-04-30T07:00:30;99073.19;;;18.33;56.32
71795;BME280;59641;45.188;5.712;2023-04-30T07:02:56;99077.00;;;18.32;56.48
71795;BME280;59641;45.188;5.712;2023-04-30T07:05:24;99080.00;;;18.30;56.26
71795;BME280;59641;45.188;5.712;2023-04-30T07:07:50;99074.28;;;18.32;56.46
71795;BME280;59641;45.188;5.712;2023-04-30T07:10:15;99075.63;;;18.35;56.60
71795;BME280;59641;45.188;5.712;2023-04-30T07:12:41;99083.22;;;18.38;56.49
71795;BME280;59641;45.188;5.712;2023-04-30T07:15:07;99084.56;;;18.40;56.72
71795;BME280;59641;45.188;5.712;2023-04-30T07:17:32;99083.47;;;18.41;56.23
71795;BME280;59641;45.188;5.712;2023-04-30T07:19:57;99084.56;;;18.40;56.63
71795;BME280;59641;45.188;5.712;2023-04-30T07:22:23;99088.09;;;18.41;56.37
71795;BME280;59641;45.188;5.712;2023-04-30T07:24:48;99088.38;;;18.39;56.34
71795;BME280;59641;45.188;5.712;2023-04-30T07:27:13;99085.66;;;18.39;56.35
71795;BME280;59641;45.188;5.712;2023-04-30T07:29:39;99088.38;;;18.39;55.99
71795;BME280;59641;45.188;5.712;2023-04-30T07:32:04;99099.22;;;18.39;56.28
71795;BME280;59641;45.188;5.712;2023-04-30T07:34:30;99095.97;;;18.37;56.50
71795;BME280;59641;45.188;5.712;2023-04-30T07:36:55;99101.16;;;18.39;56.54
71795;BME280;59641;45.188;5.712;2023-04-30T07:39:20;99097.63;;;18.38;56.12
71795;BME280;59641;45.188;5.712;2023-04-30T07:41:46;99094.59;;;18.40;56.45
71795;BME280;59641;45.188;5.712;2023-04-30T07:44:11;99092.44;;;18.42;56.01
71795;BME280;59641;45.188;5.712;2023-04-30T07:46:36;99099.50;;;18.43;56.15
71795;BME280;59641;45.188;5.712;2023-04-30T07:49:02;99093.50;;;18.46;56.05
71795;BME280;59641;45.188;5.712;2023-04-30T07:51:28;99103.56;;;18.45;56.15
71795;BME280;59641;45.188;5.712;2023-04-30T07:53:54;99108.19;;;18.45;56.50
71795;BME280;59641;45.188;5.712;2023-04-30T07:56:19;99105.47;;;18.45;55.95
71795;BME280;59641;45.188;5.712;2023-04-30T07:58:45;99109.53;;;18.47;56.18
71795;BME280;59641;45.188;5.712;2023-04-30T08:01:11;99105.72;;;18.48;56.18
71795;BME280;59641;45.188;5.712;2023-04-30T08:03:36;99104.63;;;18.49;55.77
71795;BME280;59641;45.188;5.712;2023-04-30T08:06:02;99106.00;;;18.47;55.58
71795;BME280;59641;45.188;5.712;2023-04-30T08:08:27;99096.47;;;18.49;56.03
71795;BME280;59641;45.188;5.712;2023-04-30T08:10:53;99097.31;;;18.50;56.10
71795;BME280;59641;45.188;5.712;2023-04-30T08:13:18;99106.81;;;18.52;55.75
71795;BME280;59641;45.188;5.712;2023-04-30T08:15:44;99107.59;;;18.53;55.94
71795;BME280;59641;45.188;5.712;2023-04-30T08:18:10;99104.88;;;18.53;55.94
71795;BME280;59641;45.188;5.712;2023-04-30T08:20:35;99109.75;;;18.56;55.73
71795;BME280;59641;45.188;5.712;2023-04-30T08:23:01;99111.09;;;18.59;55.78
71795;BME280;59641;45.188;5.712;2023-04-30T08:25:27;99116.28;;;18.60;55.87
71795;BME280;59641;45.188;5.712;2023-04-30T08:27:53;99120.91;;;18.60;55.49
71795;BME280;59641;45.188;5.712;2023-04-30T08:30:18;99120.59;;;18.61;55.54
71795;BME280;59641;45.188;5.712;2023-04-30T08:32:44;99130.09;;;18.64;55.60
71795;BME280;59641;45.188;5.712;2023-04-30T08:35:09;99126.31;;;18.65;55.11
71795;BME280;59641;45.188;5.712;2023-04-30T08:37:35;99140.16;;;18.63;55.46
71795;BME280;59641;45.188;5.712;2023-04-30T08:40:00;99138.56;;;18.62;55.16
71795;BME280;59641;45.188;5.712;2023-04-30T08:42:30;99137.44;;;18.63;55.26
71795;BME280;59641;45.188;5.712;2023-04-30T08:44:59;99135.84;;;18.62;55.65
71795;BME280;59641;45.188;5.712;2023-04-30T08:47:25;99152.38;;;18.66;55.18
71795;BME280;59641;45.188;5.712;2023-04-30T08:49:52;99154.28;;;18.65;55.25
71795;BME280;59641;45.188;5.712;2023-04-30T08:52:18;99157.28;;;18.69;55.33
71795;BME280;59641;45.188;5.712;2023-04-30T08:54:43;99154.81;;;18.67;55.10
71795;BME280;59641;45.188;5.712;2023-04-30T08:57:10;99156.44;;;18.68;55.71
71795;BME280;59641;45.188;5.712;2023-04-30T08:59:35;99148.84;;;18.65;55.18
71795;BME280;59641;45.188;5.712;2023-04-30T09:02:01;99152.69;;;18.64;55.00
71795;BME280;59641;45.188;5.712;2023-04-30T09:04:26;99150.25;;;18.58;55.13
71795;BME280;59641;45.188;5.712;2023-04-30T09:06:52;99150.28;;;18.52;55.18
71795;BME280;59641;45.188;5.712;2023-04-30T09:09:27;99150.00;;;18.49;55.06
71795;BME280;59641;45.188;5.712;2023-04-30T09:11:53;99156.00;;;18.46;55.54
71795;BME280;59641;45.188;5.712;2023-04-30T09:14:34;99154.66;;;18.43;55.31
71795;BME280;59641;45.188;5.712;2023-04-30T09:17:04;99154.09;;;18.41;55.62
71795;BME280;59641;45.188;5.712;2023-04-30T09:19:30;99154.38;;;18.40;55.52
71795;BME280;59641;45.188;5.712;2023-04-30T09:21:56;99160.63;;;18.40;55.72
71795;BME280;59641;45.188;5.712;2023-04-30T09:24:22;99155.22;;;18.40;55.88
71795;BME280;59641;45.188;5.712;2023-04-30T09:26:48;99160.34;;;18.42;55.27
71795;BME280;59641;45.188;5.712;2023-04-30T09:29:14;99157.63;;;18.42;55.29
71795;BME280;59641;45.188;5.712;2023-04-30T09:31:44;99161.72;;;18.39;55.61
71795;BME280;59641;45.188;5.712;2023-04-30T09:34:10;99156.28;;;18.39;55.69
71795;BME280;59641;45.188;5.712;2023-04-30T09:36:36;99162.00;;;18.38;55.38
71795;BME280;59641;45.188;5.712;2023-04-30T09:39:05;99157.94;;;18.35;55.65
71795;BME280;59641;45.188;5.712;2023-04-30T09:41:31;99173.97;;;18.31;55.44
71795;BME280;59641;45.188;5.712;2023-04-30T09:43:56;99168.28;;;18.28;55.45
71795;BME280;59641;45.188;5.712;2023-04-30T09:46:33;99163.34;;;18.30;55.49
71795;BME280;59641;45.188;5.712;2023-04-30T09:49:03;99166.38;;;18.28;55.69
71795;BME280;59641;45.188;5.712;2023-04-30T09:51:28;99171.81;;;18.28;55.87
71795;BME280;59641;45.188;5.712;2023-04-30T09:53:54;99168.00;;;18.24;55.55
71795;BME280;59641;45.188;5.712;2023-04-30T09:56:22;99170.44;;;18.26;55.76
71795;BME280;59641;45.188;5.712;2023-04-30T09:58:55;99177.50;;;18.27;55.73
71795;BME280;59641;45.188;5.712;2023-04-30T10:01:25;99173.44;;;18.24;55.75
71795;BME280;59641;45.188;5.712;2023-04-30T10:03:51;99172.09;;;18.22;55.70
71795;BME280;59641;45.188;5.712;2023-04-30T10:06:17;99178.34;;;18.17;55.83
71795;BME280;59641;45.188;5.712;2023-04-30T10:08:50;99170.19;;;18.17;55.96
71795;BME280;59641;45.188;5.712;2023-04-30T10:11:19;99165.84;;;18.16;55.55
71795;BME280;59641;45.188;5.712;2023-04-30T10:14:10;99179.69;;;18.15;55.78
71795;BME280;59641;45.188;5.712;2023-04-30T10:16:43;99186.50;;;18.12;56.12
71795;BME280;59641;45.188;5.712;2023-04-30T10:19:19;99185.13;;;18.15;55.87
71795;BME280;59641;45.188;5.712;2023-04-30T10:21:46;99185.13;;;18.15;56.12
71795;BME280;59641;45.188;5.712;2023-04-30T10:24:13;99183.75;;;18.17;56.11
71795;BME280;59641;45.188;5.712;2023-04-30T10:26:39;99189.19;;;18.17;55.54
71795;BME280;59641;45.188;5.712;2023-04-30T10:29:06;99181.06;;;18.17;55.88
71795;BME280;59641;45.188;5.712;2023-04-30T10:31:32;99180.25;;;18.17;55.59
71795;BME280;59641;45.188;5.712;2023-04-30T10:36:41;99181.88;;;18.07;55.85
71795;BME280;59641;45.188;5.712;2023-04-30T10:39:20;99177.00;;;18.04;55.68
71795;BME280;59641;45.188;5.712;2023-04-30T10:41:46;99178.91;;;18.04;55.83
71795;BME280;59641;45.188;5.712;2023-04-30T10:44:13;99181.09;;;18.02;56.00
71795;BME280;59641;45.188;5.712;2023-04-30T10:46:39;99175.91;;;18.00;55.80
71795;BME280;59641;45.188;5.712;2023-04-30T10:49:05;99172.94;;;18.02;55.90
71795;BME280;59641;45.188;5.712;2023-04-30T10:51:48;99168.56;;;18.06;55.68
71795;BME280;59641;45.188;5.712;2023-04-30T10:54:24;99176.72;;;18.06;55.79
71795;BME280;59641;45.188;5.712;2023-04-30T10:56:51;99172.66;;;18.03;55.68
71795;BME280;59641;45.188;5.712;2023-04-30T10:59:17;99179.97;;;18.03;55.57
71795;BME280;59641;45.188;5.712;2023-04-30T11:02:15;99189.78;;;18.04;55.53
71795;BME280;59641;45.188;5.712;2023-04-30T11:07:32;99180.81;;;17.98;55.68
71795;BME280;59641;45.188;5.712;2023-04-30T11:09:59;99177.28;;;17.98;55.95
71795;BME280;59641;45.188;5.712;2023-04-30T11:12:26;99170.47;;;18.00;55.99
71795;BME280;59641;45.188;5.712;2023-04-30T11:15:06;99171.28;;;18.01;55.53
71795;BME280;59641;45.188;5.712;2023-04-30T11:17:37;99177.28;;;17.98;55.80
71795;BME280;59641;45.188;5.712;2023-04-30T11:20:03;99180.53;;;18.00;55.94
71795;BME280;59641;45.188;5.712;2023-04-30T11:22:29;99177.81;;;18.00;55.99
71795;BME280;59641;45.188;5.712;2023-04-30T11:25:04;99181.34;;;18.00;55.83
71795;BME280;59641;45.188;5.712;2023-04-30T11:27:34;99187.31;;;18.02;56.06
71795;BME280;59641;45.188;5.712;2023-04-30T11:30:00;99174.56;;;18.03;55.75
71795;BME280;59641;45.188;5.712;2023-04-30T11:32:32;99183.25;;;18.05;55.87
71795;BME280;59641;45.188;5.712;2023-04-30T11:35:01;99175.09;;;18.05;55.79
71795;BME280;59641;45.188;5.712;2023-04-30T11:37:31;99177.00;;;18.04;55.80
71795;BME280;59641;45.188;5.712;2023-04-30T11:40:03;99177.00;;;18.04;55.87
71795;BME280;59641;45.188;5.712;2023-04-30T11:42:29;99176.19;;;18.04;55.55
71795;BME280;59641;45.188;5.712;2023-04-30T11:45:06;99183.25;;;18.05;55.92
71795;BME280;59641;45.188;5.712;2023-04-30T11:47:50;99182.44;;;18.04;55.64
71795;BME280;59641;45.188;5.712;2023-04-30T11:50:17;99168.56;;;18.01;55.86
71795;BME280;59641;45.188;5.712;2023-04-30T11:52:50;99181.09;;;18.02;55.70
71795;BME280;59641;45.188;5.712;2023-04-30T11:55:18;99176.72;;;18.01;55.70
71795;BME280;59641;45.188;5.712;2023-04-30T11:57:46;99182.97;;;18.01;55.86
71795;BME280;59641;45.188;5.712;2023-04-30T12:00:15;99190.28;;;18.01;56.02
71795;BME280;59641;45.188;5.712;2023-04-30T12:02:42;99190.03;;;18.02;55.95
71795;BME280;59641;45.188;5.712;2023-04-30T12:05:16;99188.69;;;18.05;56.19
71795;BME280;59641;45.188;5.712;2023-04-30T12:08:02;99184.34;;;18.09;55.96
71795;BME280;59641;45.188;5.712;2023-04-30T12:10:31;99181.31;;;18.10;55.64
71795;BME280;59641;45.188;5.712;2023-04-30T12:12:56;99184.03;;;18.10;55.55
71795;BME280;59641;45.188;5.712;2023-04-30T12:15:24;99179.97;;;18.13;55.66
71795;BME280;59641;45.188;5.712;2023-04-30T12:17:54;99180.50;;;18.15;55.54
71795;BME280;59641;45.188;5.712;2023-04-30T12:20:21;99184.88;;;18.16;55.72
71795;BME280;59641;45.188;5.712;2023-04-30T12:22:47;99187.84;;;18.20;55.66
71795;BME280;59641;45.188;5.712;2023-04-30T12:25:15;99182.94;;;18.22;55.35
71795;BME280;59641;45.188;5.712;2023-04-30T12:27:45;99194.63;;;18.22;55.41
71795;BME280;59641;45.188;5.712;2023-04-30T12:30:12;99191.09;;;18.22;55.49
71795;BME280;59641;45.188;5.712;2023-04-30T12:32:45;99179.97;;;18.23;55.40
71795;BME280;59641;45.188;5.712;2023-04-30T12:35:15;99191.66;;;18.19;55.32
71795;BME280;59641;45.188;5.712;2023-04-30T12:37:41;99182.16;;;18.16;55.21
71795;BME280;59641;45.188;5.712;2023-04-30T12:40:07;99180.81;;;18.14;55.63
71795;BME280;59641;45.188;5.712;2023-04-30T12:42:34;99186.50;;;18.12;55.51
71795;BME280;59641;45.188;5.712;2023-04-30T12:45:00;99198.41;;;18.11;55.41
71795;BME280;59641;45.188;5.712;2023-04-30T12:47:25;99191.38;;;18.10;55.65
71795;BME280;59641;45.188;5.712;2023-04-30T12:49:51;99198.97;;;18.13;55.77
71795;BME280;59641;45.188;5.712;2023-04-30T12:52:17;99184.31;;;18.14;55.39
71795;BME280;59641;45.188;5.712;2023-04-30T12:54:42;99191.66;;;18.14;55.33
71795;BME280;59641;45.188;5.712;2023-04-30T12:57:09;99188.94;;;18.14;55.48
71795;BME280;59641;45.188;5.712;2023-04-30T13:02:22;99191.13;;;18.12;55.68
71795;BME280;59641;45.188;5.712;2023-04-30T13:04:48;99197.91;;;18.09;55.37
71795;BME280;59641;45.188;5.712;2023-04-30T13:07:14;99201.69;;;18.08;55.45
71795;BME280;59641;45.188;5.712;2023-04-30T13:09:39;99200.34;;;18.10;55.57
71795;BME280;59641;45.188;5.712;2023-04-30T13:12:05;99193.00;;;18.06;55.46
71795;BME280;59641;45.188;5.712;2023-04-30T13:14:31;99199.00;;;18.03;55.51
71795;BME280;59641;45.188;5.712;2023-04-30T13:16:57;99194.66;;;18.02;55.22
71795;BME280;59641;45.188;5.712;2023-04-30T13:19:23;99193.00;;;18.01;55.17
71795;BME280;59641;45.188;5.712;2023-04-30T13:21:48;99199.53;;;18.00;55.53
71795;BME280;59641;45.188;5.712;2023-04-30T13:24:14;99190.59;;;17.99;55.35
71795;BME280;59641;45.188;5.712;2023-04-30T13:26:40;99185.97;;;18.00;55.53
71795;BME280;59641;45.188;5.712;2023-04-30T13:29:05;99188.13;;;18.03;55.02
71795;BME280;59641;45.188;5.712;2023-04-30T13:31:31;99179.72;;;18.04;55.39
71795;BME280;59641;45.188;5.712;2023-04-30T13:33:56;99188.94;;;18.08;55.43
71795;BME280;59641;45.188;5.712;2023-04-30T13:36:22;99185.94;;;18.10;55.16